Darstellungsparameter: Aktuell verwendete Einstellungen:
Skalierung der Graphiken ... ?
xyx+y,   Skalierungsfaktor:      Skalierung: Modus: x, Faktor: 1
Darstellungszeitraum ... ?
Vom - - bis: - -   Zeitraum: 03.11.2019 - 26.10.2020
Min/Max/Avg-Anzeige ... ?
Zeige MMA aktuell
Zeige MMA Monat
Zeige MMA alles
Zeige --A aktuell
Zeige --A Monat
Zeige --A alles
Keine MMA-Anzeige
MMA:
Keine MMA-Graphiken
MMA-Basis: 03.11.2019 - 26.10.2020
Quicknavigation für Darstellung... ?
Tage:      1T, 2T, 3T, 5T -1T -2T -3T -5T +1T +2T +3T +5T
Wochen: 1W, 2W, 3W -1W -2W -3W +1W +2W +3W
Monate: 1M, 3M, 6M -1M -3M -6M +1M +3M +6M
Jahre:    1J, 3J, 5J, 10J -1J -3J -5J -10J +1J +3J +5J +10J
Nutze für die Darstellung ... ?
Originaldaten oder ...
Mittelwerte Minima Maxima auf...
Stundenbasis Tagesbasis Wochenbasis
Monatsbasis Jahresbasis      Datenbasis: Mittelwerte auf Tagesbasis
Darstellen als:
Statistik (Auto) Statistik J:M      Darstellung:

Der gewünschte Datumsbereich war nicht gültig/verfügbar und wurde korrigiert....
Das angegebene Enddatum (02.11.2020 23:59:59) liegt in der Zukunft.


Zur Graphik,    zurück zur Übersicht aller Sensoren.
 
Tabellarische Datenbersicht: ?
 
Sensor: Nr:Datum:Temp:Feuchte:
Aussen-T/F 1 03-11-2019 00:00:00 11.45069 C 29.7639 %
2 04-11-2019 00:00:00 9.88542 C 30.2153 %
3 05-11-2019 00:00:00 9.25069 C 27.4306 %
4 06-11-2019 00:00:00 8.33542 C 34.7014 %
5 07-11-2019 00:00:00 7.30278 C 33.8333 %
6 08-11-2019 00:00:00 4.29028 C 37.7153 %
7 09-11-2019 00:00:00 4.26806 C 33.1111 %
8 10-11-2019 00:00:00 2.51319 C 34.9861 %
9 11-11-2019 00:00:00 4.2 C 27.4792 %
10 12-11-2019 00:00:00 5.41667 C 25.4792 %
11 13-11-2019 00:00:00 4.93472 C 22.9861 %
12 14-11-2019 00:00:00 4.86042 C 26.9861 %
13 15-11-2019 00:00:00 4.08472 C 26.3333 %
14 16-11-2019 00:00:00 1.19444 C 38.8125 %
15 17-11-2019 00:00:00 2.39861 C 40.2708 %
16 18-11-2019 00:00:00 3.51667 C 36.2847 %
17 19-11-2019 00:00:00 3.06736 C 36.5833 %
18 20-11-2019 00:00:00 0.75972 C 37.8403 %
19 21-11-2019 00:00:00 1.18951 C 39.3846 %
20 22-11-2019 00:00:00 3.65972 C 35.6806 %
21 23-11-2019 00:00:00 4.64653 C 33.3889 %
22 24-11-2019 00:00:00 1.99861 C 41.4722 %
23 25-11-2019 00:00:00 4.16319 C 39.3681 %
24 26-11-2019 00:00:00 7.75903 C 34.8472 %
25 27-11-2019 00:00:00 9.72083 C 30.6875 %
Sensor: Nr:Datum:Temp:Feuchte:
Aussen-T/F 26 28-11-2019 00:00:00 10.55833 C 22.1319 %
27 29-11-2019 00:00:00 5.75486 C 30.7639 %
28 30-11-2019 00:00:00 0.48194 C 42.0972 %
29 01-12-2019 00:00:00 1.14236 C 33.0139 %
30 02-12-2019 00:00:00 1.20556 C 36.2986 %
31 03-12-2019 00:00:00 3.97431 C 39.2292 %
32 04-12-2019 00:00:00 0.41389 C 41.6111 %
33 05-12-2019 00:00:00 -2.03194 C 42.0972 %
34 06-12-2019 00:00:00 2.6125 C 34.4722 %
35 07-12-2019 00:00:00 8.20694 C 27.7292 %
36 08-12-2019 00:00:00 9.69931 C 24.2778 %
37 09-12-2019 00:00:00 7.09444 C 23.9722 %
38 10-12-2019 00:00:00 2.37361 C 34.0000 %
39 11-12-2019 00:00:00 3.12569 C 39.3056 %
40 12-12-2019 00:00:00 2.64931 C 37.2500 %
41 13-12-2019 00:00:00 3.25278 C 34.0069 %
42 14-12-2019 00:00:00 6.22222 C 28.0625 %
43 15-12-2019 00:00:00 7.24792 C 30.8958 %
44 16-12-2019 00:00:00 7.47361 C 39.2986 %
45 17-12-2019 00:00:00 9.69514 C 31.9653 %
46 18-12-2019 00:00:00 6.95069 C 37.4792 %
47 19-12-2019 00:00:00 4.60972 C 40.5417 %
48 20-12-2019 00:00:00 6.87778 C 35.7847 %
49 21-12-2019 00:00:00 6.42778 C 32.4306 %
50 22-12-2019 00:00:00 7.57917 C 31.0556 %
Sensor: Nr:Datum:Temp:Feuchte:
Aussen-T/F 51 23-12-2019 00:00:00 7.34861 C 28.6111 %
52 24-12-2019 00:00:00 7.20278 C 29.9097 %
53 25-12-2019 00:00:00 6.91944 C 32.8333 %
54 26-12-2019 00:00:00 4.25278 C 40.6250 %
55 27-12-2019 00:00:00 4.41181 C 36.8819 %
56 28-12-2019 00:00:00 -1.22431 C 42.5000 %
57 29-12-2019 00:00:00 -2.07708 C 39.8819 %
58 30-12-2019 00:00:00 -1.99931 C 39.1319 %
59 31-12-2019 00:00:00 -0.41736 C 39.5556 %
60 01-01-2020 00:00:00 -0.10764 C 41.3403 %
61 02-01-2020 00:00:00 0.98958 C 39.7014 %
62 03-01-2020 00:00:00 7.00972 C 33.4653 %
63 04-01-2020 00:00:00 4.78264 C 32.5903 %
64 05-01-2020 00:00:00 5.21806 C 35.8750 %
65 06-01-2020 00:00:00 2.11667 C 38.1667 %
66 07-01-2020 00:00:00 4.43611 C 34.6944 %
67 08-01-2020 00:00:00 7.71389 C 34.4167 %
68 09-01-2020 00:00:00 10.33542 C 35.2292 %
69 10-01-2020 00:00:00 8.27917 C 30.8958 %
70 11-01-2020 00:00:00 3.61806 C 33.7639 %
71 12-01-2020 00:00:00 4.57083 C 30.3889 %
72 13-01-2020 00:00:00 5.88472 C 35.0903 %
73 14-01-2020 00:00:00 9.28264 C 24.1181 %
74 15-01-2020 00:00:00 10.27083 C 23.7500 %
75 16-01-2020 00:00:00 7.07569 C 40.1944 %
Sensor: Nr:Datum:Temp:Feuchte:
Aussen-T/F 76 17-01-2020 00:00:00 5.27986 C 39.1944 %
77 18-01-2020 00:00:00 3.79028 C 32.6042 %
78 19-01-2020 00:00:00 3.01389 C 40.8194 %
79 20-01-2020 00:00:00 1.64861 C 39.3889 %
80 21-01-2020 00:00:00 -2.675 C 44.7986 %
81 22-01-2020 00:00:00 -1.95347 C 44.7153 %
82 23-01-2020 00:00:00 0.53819 C 43.6458 %
83 24-01-2020 00:00:00 0.81319 C 35.7222 %
84 25-01-2020 00:00:00 1.99236 C 39.2014 %
85 26-01-2020 00:00:00 2.13056 C 41.5625 %
86 27-01-2020 00:00:00 5.48542 C 39.8264 %
87 28-01-2020 00:00:00 5.07708 C 30.3750 %
88 29-01-2020 00:00:00 4.20764 C 29.8611 %
89 30-01-2020 00:00:00 7.57569 C 29.5694 %
90 31-01-2020 00:00:00 12.86181 C 27.9167 %
91 01-02-2020 00:00:00 11.16597 C 32.0972 %
92 02-02-2020 00:00:00 9.925 C 31.1319 %
93 03-02-2020 00:00:00 10.19236 C 29.5139 %
94 04-02-2020 00:00:00 4.29514 C 36.4097 %
95 05-02-2020 00:00:00 3.05069 C 37.1458 %
96 06-02-2020 00:00:00 0.04514 C 42.7500 %
97 07-02-2020 00:00:00 -0.30764 C 42.8264 %
98 08-02-2020 00:00:00 1.01389 C 43.0069 %
99 09-02-2020 00:00:00 8.36458 C 32.5764 %
100 10-02-2020 00:00:00 7.85 C 31.3611 %
Sensor: Nr:Datum:Temp:Feuchte:
Aussen-T/F 101 11-02-2020 00:00:00 5.29167 C 24.6597 %
102 12-02-2020 00:00:00 4.32083 C 30.5972 %
103 13-02-2020 00:00:00 3.32917 C 42.1250 %
104 14-02-2020 00:00:00 5.46458 C 39.2639 %
105 15-02-2020 00:00:00 5.89931 C 38.0278 %
106 16-02-2020 00:00:00 14.44931 C 23.2431 %
107 17-02-2020 00:00:00 8.25903 C 32.4167 %
108 18-02-2020 00:00:00 6.89097 C 31.0347 %
109 19-02-2020 00:00:00 5.73889 C 30.1875 %
110 20-02-2020 00:00:00 7.7125 C 32.9722 %
111 21-02-2020 00:00:00 4.71042 C 33.5972 %
112 22-02-2020 00:00:00 7.67986 C 30.0347 %
113 23-02-2020 00:00:00 10.01389 C 35.3403 %
114 24-02-2020 00:00:00 7.74653 C 36.3194 %
115 25-02-2020 00:00:00 8.81597 C 32.2778 %
116 26-02-2020 00:00:00 4.37431 C 33.6806 %
117 27-02-2020 00:00:00 2.22153 C 41.6806 %
118 28-02-2020 00:00:00 3.52431 C 38.4514 %
119 29-02-2020 00:00:00 8.60556 C 34.8889 %
120 01-03-2020 00:00:00 7.15694 C 36.0000 %
121 02-03-2020 00:00:00 5.99375 C 40.1667 %
122 03-03-2020 00:00:00 4.26806 C 39.6458 %
123 04-03-2020 00:00:00 5.28958 C 37.5764 %
124 05-03-2020 00:00:00 5.45764 C 43.0833 %
125 06-03-2020 00:00:00 5.63958 C 40.4931 %
Sensor: Nr:Datum:Temp:Feuchte:
Aussen-T/F 126 07-03-2020 00:00:00 6.26458 C 33.7569 %
127 08-03-2020 00:00:00 9.46458 C 32.2361 %
128 09-03-2020 00:00:00 7.81875 C 35.4514 %
129 10-03-2020 00:00:00 9.06181 C 39.4514 %
130 11-03-2020 00:00:00 14.0375 C 35.2639 %
131 12-03-2020 00:00:00 11.01597 C 30.3681 %
132 13-03-2020 00:00:00 6.99236 C 33.4236 %
133 14-03-2020 00:00:00 5.89028 C 38.1667 %
134 15-03-2020 00:00:00 9.14653 C 32.2153 %
135 16-03-2020 00:00:00 9.43264 C 35.6667 %
136 17-03-2020 00:00:00 12.02708 C 33.7847 %
137 18-03-2020 00:00:00 9.92639 C 36.2153 %
138 19-03-2020 00:00:00 12.58194 C 32.0417 %
139 20-03-2020 00:00:00 10.52657 C 36.2308 %
140 21-03-2020 00:00:00 5.89653 C 34.6597 %
141 22-03-2020 00:00:00 4.30139 C 28.5278 %
142 23-03-2020 00:00:00 3.12292 C 27.0764 %
143 24-03-2020 00:00:00 2.82431 C 27.8403 %
144 25-03-2020 00:00:00 3.67014 C 25.0486 %
145 26-03-2020 00:00:00 5.25486 C 23.4931 %
146 27-03-2020 00:00:00 8.10139 C 29.8819 %
147 28-03-2020 00:00:00 9.69236 C 30.9306 %
148 29-03-2020 00:00:00 5.0942 C 30.1377 %
149 30-03-2020 00:00:00 2.89028 C 29.9167 %
150 31-03-2020 00:00:00 5.79792 C 30.1528 %
Sensor: Nr:Datum:Temp:Feuchte:
Aussen-T/F 151 01-04-2020 00:00:00 4.16111 C 29.6944 %
152 02-04-2020 00:00:00 5.26806 C 31.1944 %
153 03-04-2020 00:00:00 7.93542 C 28.5069 %
154 04-04-2020 00:00:00 6.89375 C 31.8958 %
155 05-04-2020 00:00:00 9.74514 C 32.0625 %
156 06-04-2020 00:00:00 12.17708 C 29.7431 %
157 07-04-2020 00:00:00 14.2875 C 28.9028 %
158 08-04-2020 00:00:00 15.02153 C 31.1528 %
159 09-04-2020 00:00:00 15.89514 C 27.6458 %
160 10-04-2020 00:00:00 14.80972 C 29.8333 %
161 11-04-2020 00:00:00 14.775 C 25.4861 %
162 12-04-2020 00:00:00 15.71319 C 27.3056 %
163 13-04-2020 00:00:00 9.43542 C 29.6944 %
164 14-04-2020 00:00:00 6.54583 C 28.1042 %
165 15-04-2020 00:00:00 9.17222 C 30.8750 %
166 16-04-2020 00:00:00 13.09792 C 29.6667 %
167 17-04-2020 00:00:00 15.68056 C 30.2500 %
168 18-04-2020 00:00:00 14.81597 C 32.5000 %
169 19-04-2020 00:00:00 13.35694 C 32.8889 %
170 20-04-2020 00:00:00 12.80069 C 22.9861 %
171 21-04-2020 00:00:00 13.68472 C 21.3889 %
172 22-04-2020 00:00:00 14.69375 C 23.2153 %
173 23-04-2020 00:00:00 14.90347 C 25.2917 %
174 24-04-2020 00:00:00 14.72361 C 27.0278 %
175 25-04-2020 00:00:00 13.03611 C 25.6597 %
Sensor: Nr:Datum:Temp:Feuchte:
Aussen-T/F 176 26-04-2020 00:00:00 12.22917 C 31.0069 %
177 27-04-2020 00:00:00 13.17153 C 29.7431 %
178 28-04-2020 00:00:00 12.62153 C 36.5556 %
179 29-04-2020 00:00:00 14.57569 C 31.0903 %
180 30-04-2020 00:00:00 12.09722 C 36.4583 %
181 01-05-2020 00:00:00 10.66042 C 37.3542 %
182 02-05-2020 00:00:00 10.00764 C 36.3611 %
183 03-05-2020 00:00:00 10.75833 C 34.4653 %
184 04-05-2020 00:00:00 11.74722 C 36.3681 %
185 05-05-2020 00:00:00 11.26667 C 32.2083 %
186 06-05-2020 00:00:00 11.08403 C 30.6181 %
187 07-05-2020 00:00:00 13.50764 C 30.8056 %
188 08-05-2020 00:00:00 15.85208 C 29.3056 %
189 09-05-2020 00:00:00 16.28611 C 29.0139 %
190 10-05-2020 00:00:00 15.97153 C 36.6389 %
191 11-05-2020 00:00:00 9.26875 C 32.4028 %
192 12-05-2020 00:00:00 8.55764 C 29.8264 %
193 13-05-2020 00:00:00 9.41528 C 30.4444 %
194 14-05-2020 00:00:00 9.74792 C 29.2917 %
195 15-05-2020 00:00:00 11.27986 C 28.5903 %
196 16-05-2020 00:00:00 11.95833 C 29.2986 %
197 17-05-2020 00:00:00 14.25556 C 28.0625 %
198 18-05-2020 00:00:00 16.81042 C 28.8681 %
199 19-05-2020 00:00:00 17.67986 C 29.2153 %
200 20-05-2020 00:00:00 18.90417 C 29.3611 %
Sensor: Nr:Datum:Temp:Feuchte:
Aussen-T/F 201 21-05-2020 00:00:00 20.425 C 29.2361 %
202 22-05-2020 00:00:00 20.27222 C 29.9583 %
203 23-05-2020 00:00:00 13.65972 C 37.1111 %
204 24-05-2020 00:00:00 13.68056 C 31.3750 %
205 25-05-2020 00:00:00 16.41181 C 30.5625 %
206 26-05-2020 00:00:00 15.69306 C 31.7292 %
207 27-05-2020 00:00:00 18.09444 C 29.6597 %
208 28-05-2020 00:00:00 18.81736 C 24.7153 %
209 29-05-2020 00:00:00 16.43681 C 26.8056 %
210 30-05-2020 00:00:00 16.61667 C 24.5000 %
211 31-05-2020 00:00:00 16.21736 C 26.2153 %
212 01-06-2020 00:00:00 19.27153 C 26.8889 %
213 02-06-2020 00:00:00 21.30486 C 25.6250 %
214 03-06-2020 00:00:00 21.06597 C 25.1042 %
215 04-06-2020 00:00:00 14.39583 C 39.8403 %
216 05-06-2020 00:00:00 11.4625 C 37.4306 %
217 06-06-2020 00:00:00 12.76111 C 34.0347 %
218 07-06-2020 00:00:00 13.84514 C 31.7083 %
219 08-06-2020 00:00:00 15.57014 C 31.2986 %
220 09-06-2020 00:00:00 14.49861 C 37.8333 %
221 10-06-2020 00:00:00 15.8625 C 35.7431 %
222 11-06-2020 00:00:00 15.99028 C 36.5486 %
223 12-06-2020 00:00:00 20.73403 C 31.5139 %
224 13-06-2020 00:00:00 21.73403 C 27.8889 %
225 14-06-2020 00:00:00 19.10208 C 32.2222 %
Sensor: Nr:Datum:Temp:Feuchte:
Aussen-T/F 226 15-06-2020 00:00:00 19.14306 C 31.8264 %
227 16-06-2020 00:00:00 18.22986 C 36.8750 %
228 17-06-2020 00:00:00 18.10486 C 36.5347 %
229 18-06-2020 00:00:00 19.72569 C 31.4722 %
230 19-06-2020 00:00:00 17.11181 C 35.9028 %
231 20-06-2020 00:00:00 17.44514 C 34.6319 %
232 21-06-2020 00:00:00 20.65208 C 31.4097 %
233 22-06-2020 00:00:00 20.03958 C 29.0347 %
234 23-06-2020 00:00:00 21.27708 C 29.8472 %
235 24-06-2020 00:00:00 22.32569 C 27.2222 %
236 25-06-2020 00:00:00 22.52222 C 26.3264 %
237 26-06-2020 00:00:00 23.33542 C 29.4306 %
238 27-06-2020 00:00:00 23.59236 C 27.9236 %
239 28-06-2020 00:00:00 20.15625 C 29.1181 %
240 29-06-2020 00:00:00 18.91667 C 29.3750 %
241 30-06-2020 00:00:00 17.63611 C 29.2500 %
242 01-07-2020 00:00:00 22.10764 C 27.2500 %
243 02-07-2020 00:00:00 19.35903 C 32.8611 %
244 03-07-2020 00:00:00 18.4375 C 30.9306 %
245 04-07-2020 00:00:00 19.56528 C 27.8056 %
246 05-07-2020 00:00:00 23.42222 C 26.5069 %
247 06-07-2020 00:00:00 16.97292 C 27.8264 %
248 07-07-2020 00:00:00 16.98611 C 30.0903 %
249 08-07-2020 00:00:00 15.99444 C 36.0486 %
250 09-07-2020 00:00:00 22.42361 C 30.2153 %
Sensor: Nr:Datum:Temp:Feuchte:
Aussen-T/F 251 10-07-2020 00:00:00 18.77222 C 32.6042 %
252 11-07-2020 00:00:00 17.44167 C 29.9514 %
253 12-07-2020 00:00:00 18.36944 C 29.9792 %
254 13-07-2020 00:00:00 20.63333 C 27.9931 %
255 14-07-2020 00:00:00 19.57917 C 28.7153 %
256 15-07-2020 00:00:00 18.56806 C 29.6389 %
257 16-07-2020 00:00:00 16.03611 C 38.0625 %
258 17-07-2020 00:00:00 19.64375 C 32.7222 %
259 18-07-2020 00:00:00 20.24406 C 31.3636 %
260 19-07-2020 00:00:00 23.3625 C 27.6597 %
261 20-07-2020 00:00:00 20.29931 C 28.6111 %
262 21-07-2020 00:00:00 18.99375 C 27.2083 %
263 22-07-2020 00:00:00 18.52222 C 28.8542 %
264 23-07-2020 00:00:00 20.38472 C 26.9306 %
265 24-07-2020 00:00:00 21.93889 C 24.3333 %
266 25-07-2020 00:00:00 21.73681 C 27.9583 %
267 26-07-2020 00:00:00 21.61944 C 29.2361 %
268 27-07-2020 00:00:00 22.74306 C 28.1181 %
269 28-07-2020 00:00:00 23.63681 C 22.2569 %
270 29-07-2020 00:00:00 20.21875 C 27.2083 %
271 30-07-2020 00:00:00 21.74306 C 27.3958 %
272 31-07-2020 00:00:00 25.38125 C 25.3056 %
273 01-08-2020 00:00:00 22.83611 C 31.0000 %
274 02-08-2020 00:00:00 22.3625 C 29.5694 %
275 03-08-2020 00:00:00 18.8125 C 30.2222 %
Sensor: Nr:Datum:Temp:Feuchte:
Aussen-T/F 276 04-08-2020 00:00:00 20.01944 C 27.5139 %
277 05-08-2020 00:00:00 20.54444 C 28.1875 %
278 06-08-2020 00:00:00 22.82014 C 26.7500 %
279 07-08-2020 00:00:00 24.83819 C 26.9306 %
280 08-08-2020 00:00:00 27.23056 C 25.4722 %
281 09-08-2020 00:00:00 24.89722 C 26.9583 %
282 10-08-2020 00:00:00 26.58125 C 27.6319 %
283 11-08-2020 00:00:00 26.57986 C 27.6944 %
284 12-08-2020 00:00:00 24.53194 C 33.3958 %
285 13-08-2020 00:00:00 24.15556 C 32.0694 %
286 14-08-2020 00:00:00 24.22639 C 29.9306 %
287 15-08-2020 00:00:00 22.52847 C 33.3611 %
288 16-08-2020 00:00:00 23.01608 C 33.3287 %
289 17-08-2020 00:00:00 22.00069 C 32.0694 %
290 18-08-2020 00:00:00 19.64722 C 33.6319 %
291 19-08-2020 00:00:00 19.99514 C 33.0764 %
292 20-08-2020 00:00:00 24.92847 C 30.1597 %
293 21-08-2020 00:00:00 25.70417 C 25.9653 %
294 22-08-2020 00:00:00 23.12222 C 26.7500 %
295 23-08-2020 00:00:00 19.60972 C 28.1042 %
296 24-08-2020 00:00:00 18.62986 C 28.9931 %
297 25-08-2020 00:00:00 19.32986 C 29.6458 %
298 26-08-2020 00:00:00 21.03819 C 23.8750 %
299 27-08-2020 00:00:00 19.17014 C 29.1458 %
300 28-08-2020 00:00:00 18.33125 C 32.6875 %
Sensor: Nr:Datum:Temp:Feuchte:
Aussen-T/F 301 29-08-2020 00:00:00 16.67083 C 33.7222 %
302 30-08-2020 00:00:00 16.39375 C 34.2917 %
303 31-08-2020 00:00:00 15.79722 C 38.0278 %
304 01-09-2020 00:00:00 15.44097 C 36.7014 %
305 02-09-2020 00:00:00 16.35833 C 34.1458 %
306 03-09-2020 00:00:00 14.34375 C 38.0417 %
307 04-09-2020 00:00:00 20.75069 C 32.0486 %
308 05-09-2020 00:00:00 17.11528 C 33.1597 %
309 06-09-2020 00:00:00 13.4375 C 34.3194 %
310 07-09-2020 00:00:00 14.46806 C 34.1528 %
311 08-09-2020 00:00:00 16.83333 C 32.9444 %
312 09-09-2020 00:00:00 18.66042 C 33.7431 %
313 10-09-2020 00:00:00 18.46458 C 30.3681 %
314 11-09-2020 00:00:00 15.48958 C 33.4097 %
315 12-09-2020 00:00:00 17.60694 C 32.8194 %
316 13-09-2020 00:00:00 17.58264 C 33.1181 %
317 14-09-2020 00:00:00 18.825 C 32.5972 %
318 15-09-2020 00:00:00 20.67778 C 31.9514 %
319 16-09-2020 00:00:00 20.99792 C 30.5764 %
320 17-09-2020 00:00:00 18.14167 C 27.7708 %
321 18-09-2020 00:00:00 16.05694 C 28.6458 %
322 19-09-2020 00:00:00 15.83333 C 28.6389 %
323 20-09-2020 00:00:00 14.71528 C 31.0556 %
324 21-09-2020 00:00:00 14.91458 C 32.5000 %
325 22-09-2020 00:00:00 16.11667 C 32.2500 %
Sensor: Nr:Datum:Temp:Feuchte:
Aussen-T/F 326 23-09-2020 00:00:00 17.92083 C 28.8403 %
327 24-09-2020 00:00:00 16.25417 C 33.3333 %
328 25-09-2020 00:00:00 12.31111 C 36.3958 %
329 26-09-2020 00:00:00 10.10347 C 40.6528 %
330 27-09-2020 00:00:00 10.94444 C 41.1250 %
331 28-09-2020 00:00:00 11.69167 C 38.6736 %
332 29-09-2020 00:00:00 11.77431 C 42.8125 %
333 30-09-2020 00:00:00 14.11111 C 38.7153 %
334 01-10-2020 00:00:00 12.29028 C 40.9444 %
335 02-10-2020 00:00:00 13.37083 C 37.4167 %
336 03-10-2020 00:00:00 13.26319 C 37.8333 %
337 04-10-2020 00:00:00 11.62917 C 38.9236 %
338 05-10-2020 00:00:00 10.97153 C 39.6181 %
339 06-10-2020 00:00:00 12.99722 C 37.3264 %
340 07-10-2020 00:00:00 13.06667 C 34.6597 %
341 08-10-2020 00:00:00 13.22847 C 37.7153 %
342 09-10-2020 00:00:00 12.59375 C 41.7917 %
343 10-10-2020 00:00:00 9.99792 C 37.6597 %
344 11-10-2020 00:00:00 9.97917 C 37.2014 %
345 12-10-2020 00:00:00 9.1875 C 41.7222 %
346 13-10-2020 00:00:00 7.29441 C 42.2238 %
347 14-10-2020 00:00:00 7.53958 C 40.7708 %
348 15-10-2020 00:00:00 8.77153 C 42.0833 %
349 16-10-2020 00:00:00 8.84167 C 42.1250 %
350 17-10-2020 00:00:00 5.93889 C 43.1319 %
Sensor: Nr:Datum:Temp:Feuchte:
Aussen-T/F 351 18-10-2020 00:00:00 8.03542 C 40.4792 %
352 19-10-2020 00:00:00 8.36736 C 41.3056 %
353 20-10-2020 00:00:00 8.59236 C 42.2014 %
354 21-10-2020 00:00:00 15.21042 C 34.9167 %
355 22-10-2020 00:00:00 16.22292 C 35.5694 %
356 23-10-2020 00:00:00 14.75486 C 39.6319 %
357 24-10-2020 00:00:00 13.26458 C 37.1319 %
358 25-10-2020 00:00:00 12.824 C 38.0600 %
359 26-10-2020 00:00:00 10.11967 C 43.0820 %
Sensor: Nr:Datum:Temp:Feuchte:
G-T/H 1 03-11-2019 00:00:00 12.91806 C 75.4861 %
2 04-11-2019 00:00:00 12.97569 C 75.6250 %
3 05-11-2019 00:00:00 12.58194 C 75.9444 %
4 06-11-2019 00:00:00 12.33194 C 75.6528 %
5 07-11-2019 00:00:00 12.18403 C 75.3403 %
6 08-11-2019 00:00:00 11.13611 C 70.1181 %
7 09-11-2019 00:00:00 11.02014 C 69.0972 %
8 10-11-2019 00:00:00 9.95556 C 68.3056 %
9 11-11-2019 00:00:00 9.96458 C 71.2708 %
10 12-11-2019 00:00:00 10.11458 C 72.0972 %
11 13-11-2019 00:00:00 10.0125 C 72.4097 %
12 14-11-2019 00:00:00 9.73403 C 68.3958 %
13 15-11-2019 00:00:00 9.68819 C 69.4028 %
14 16-11-2019 00:00:00 9.6125 C 68.7083 %
15 17-11-2019 00:00:00 9.03819 C 69.9306 %
16 18-11-2019 00:00:00 9.47361 C 72.2500 %
17 19-11-2019 00:00:00 9.40903 C 72.0833 %
18 20-11-2019 00:00:00 8.93333 C 71.1181 %
19 21-11-2019 00:00:00 8.40559 C 70.8182 %
20 22-11-2019 00:00:00 8.70556 C 72.6736 %
21 23-11-2019 00:00:00 9.32569 C 73.0972 %
22 24-11-2019 00:00:00 9.08333 C 72.0764 %
23 25-11-2019 00:00:00 9.04375 C 73.5069 %
24 26-11-2019 00:00:00 9.85139 C 74.9375 %
25 27-11-2019 00:00:00 10.87847 C 75.9236 %
Sensor: Nr:Datum:Temp:Feuchte:
G-T/H 26 28-11-2019 00:00:00 11.51597 C 75.5069 %
27 29-11-2019 00:00:00 11.25208 C 72.3542 %
28 30-11-2019 00:00:00 9.66736 C 68.9097 %
29 01-12-2019 00:00:00 8.81806 C 70.1806 %
30 02-12-2019 00:00:00 8.35278 C 70.5417 %
31 03-12-2019 00:00:00 8.74514 C 73.3472 %
32 04-12-2019 00:00:00 8.79375 C 71.8403 %
33 05-12-2019 00:00:00 7.92014 C 69.1458 %
34 06-12-2019 00:00:00 7.57292 C 70.7014 %
35 07-12-2019 00:00:00 8.97014 C 74.4514 %
36 08-12-2019 00:00:00 10.25694 C 75.1667 %
37 09-12-2019 00:00:00 10.48403 C 74.1111 %
38 10-12-2019 00:00:00 9.34028 C 71.5903 %
39 11-12-2019 00:00:00 8.75694 C 73.1250 %
40 12-12-2019 00:00:00 8.81042 C 73.2500 %
41 13-12-2019 00:00:00 8.51944 C 72.1458 %
42 14-12-2019 00:00:00 8.92153 C 73.0764 %
43 15-12-2019 00:00:00 9.56736 C 74.6667 %
44 16-12-2019 00:00:00 9.90486 C 75.1389 %
45 17-12-2019 00:00:00 10.43333 C 75.4583 %
46 18-12-2019 00:00:00 10.925 C 75.4861 %
47 19-12-2019 00:00:00 9.76667 C 73.6667 %
48 20-12-2019 00:00:00 9.69375 C 75.0208 %
49 21-12-2019 00:00:00 10.06458 C 74.5833 %
50 22-12-2019 00:00:00 10.1375 C 75.1528 %
Sensor: Nr:Datum:Temp:Feuchte:
G-T/H 51 23-12-2019 00:00:00 10.30417 C 75.3681 %
52 24-12-2019 00:00:00 10.12639 C 74.9375 %
53 25-12-2019 00:00:00 10.24444 C 75.9653 %
54 26-12-2019 00:00:00 9.92708 C 75.2569 %
55 27-12-2019 00:00:00 9.69444 C 75.5833 %
56 28-12-2019 00:00:00 8.37639 C 70.3194 %
57 29-12-2019 00:00:00 7.21528 C 69.6875 %
58 30-12-2019 00:00:00 7.16944 C 69.0486 %
59 31-12-2019 00:00:00 6.93194 C 69.9722 %
60 01-01-2020 00:00:00 7.23125 C 70.8403 %
61 02-01-2020 00:00:00 7.28958 C 70.5417 %
62 03-01-2020 00:00:00 8.41389 C 73.4792 %
63 04-01-2020 00:00:00 9.12431 C 73.5833 %
64 05-01-2020 00:00:00 9.42917 C 73.5694 %
65 06-01-2020 00:00:00 9.33958 C 72.1181 %
66 07-01-2020 00:00:00 8.74583 C 72.1111 %
67 08-01-2020 00:00:00 9.18611 C 74.0347 %
68 09-01-2020 00:00:00 10.3875 C 76.5556 %
69 10-01-2020 00:00:00 11.02153 C 75.1389 %
70 11-01-2020 00:00:00 10.04097 C 73.2014 %
71 12-01-2020 00:00:00 9.14861 C 72.8958 %
72 13-01-2020 00:00:00 9.30833 C 74.5139 %
73 14-01-2020 00:00:00 9.78958 C 75.6597 %
74 15-01-2020 00:00:00 10.59028 C 75.5972 %
75 16-01-2020 00:00:00 10.82222 C 75.8264 %
Sensor: Nr:Datum:Temp:Feuchte:
G-T/H 76 17-01-2020 00:00:00 9.87847 C 74.9583 %
77 18-01-2020 00:00:00 9.38125 C 74.1597 %
78 19-01-2020 00:00:00 8.86667 C 74.2569 %
79 20-01-2020 00:00:00 8.75 C 73.1111 %
80 21-01-2020 00:00:00 7.77014 C 69.7847 %
81 22-01-2020 00:00:00 7.17083 C 69.5903 %
82 23-01-2020 00:00:00 7.63472 C 70.8611 %
83 24-01-2020 00:00:00 7.71319 C 70.9097 %
84 25-01-2020 00:00:00 7.96806 C 71.5139 %
85 26-01-2020 00:00:00 7.98611 C 72.6597 %
86 27-01-2020 00:00:00 8.21875 C 74.7500 %
87 28-01-2020 00:00:00 8.85833 C 75.1458 %
88 29-01-2020 00:00:00 8.44306 C 74.0000 %
89 30-01-2020 00:00:00 8.61389 C 74.8750 %
90 31-01-2020 00:00:00 10.32431 C 76.3958 %
91 01-02-2020 00:00:00 11.40556 C 76.3681 %
92 02-02-2020 00:00:00 11.15903 C 73.6736 %
93 03-02-2020 00:00:00 11.4875 C 75.0000 %
94 04-02-2020 00:00:00 10.54722 C 71.2847 %
95 05-02-2020 00:00:00 9.47153 C 71.9236 %
96 06-02-2020 00:00:00 8.34306 C 70.5208 %
97 07-02-2020 00:00:00 7.79097 C 69.9167 %
98 08-02-2020 00:00:00 7.33681 C 70.6528 %
99 09-02-2020 00:00:00 8.3 C 73.5694 %
100 10-02-2020 00:00:00 9.82708 C 73.9167 %
Sensor: Nr:Datum:Temp:Feuchte:
G-T/H 101 11-02-2020 00:00:00 9.18194 C 72.2431 %
102 12-02-2020 00:00:00 8.72083 C 72.8750 %
103 13-02-2020 00:00:00 8.20208 C 72.5208 %
104 14-02-2020 00:00:00 8.84653 C 74.7500 %
105 15-02-2020 00:00:00 8.93958 C 73.5903 %
106 16-02-2020 00:00:00 11.3125 C 68.1111 %
107 17-02-2020 00:00:00 11.77708 C 69.2778 %
108 18-02-2020 00:00:00 10.43056 C 67.4028 %
109 19-02-2020 00:00:00 9.94514 C 69.4583 %
110 20-02-2020 00:00:00 9.73472 C 71.6875 %
111 21-02-2020 00:00:00 9.56875 C 71.4931 %
112 22-02-2020 00:00:00 9.25625 C 72.0625 %
113 23-02-2020 00:00:00 10.38403 C 73.7708 %
114 24-02-2020 00:00:00 10.40903 C 71.9792 %
115 25-02-2020 00:00:00 10.88819 C 73.0278 %
116 26-02-2020 00:00:00 10.02917 C 68.9306 %
117 27-02-2020 00:00:00 9.17986 C 71.0208 %
118 28-02-2020 00:00:00 8.31042 C 73.7708 %
119 29-02-2020 00:00:00 9.28125 C 75.1597 %
120 01-03-2020 00:00:00 9.80486 C 74.3403 %
121 02-03-2020 00:00:00 9.67847 C 73.5833 %
122 03-03-2020 00:00:00 9.53681 C 73.3194 %
123 04-03-2020 00:00:00 8.95833 C 73.5139 %
124 05-03-2020 00:00:00 9.15833 C 73.9861 %
125 06-03-2020 00:00:00 9.48958 C 74.9514 %
Sensor: Nr:Datum:Temp:Feuchte:
G-T/H 126 07-03-2020 00:00:00 9.38611 C 74.0556 %
127 08-03-2020 00:00:00 9.99583 C 74.7292 %
128 09-03-2020 00:00:00 10.54861 C 73.8819 %
129 10-03-2020 00:00:00 10.28056 C 73.3819 %
130 11-03-2020 00:00:00 11.72083 C 75.8889 %
131 12-03-2020 00:00:00 12.29653 C 71.3333 %
132 13-03-2020 00:00:00 11.08333 C 68.2014 %
133 14-03-2020 00:00:00 10.32361 C 70.1250 %
134 15-03-2020 00:00:00 10.87153 C 65.1667 %
135 16-03-2020 00:00:00 10.71667 C 66.3819 %
136 17-03-2020 00:00:00 11.47153 C 70.7292 %
137 18-03-2020 00:00:00 11.42569 C 70.3472 %
138 19-03-2020 00:00:00 12.36736 C 67.4583 %
139 20-03-2020 00:00:00 12.53217 C 67.5944 %
140 21-03-2020 00:00:00 11.55903 C 63.9097 %
141 22-03-2020 00:00:00 9.66111 C 61.2292 %
142 23-03-2020 00:00:00 8.67431 C 62.8819 %
143 24-03-2020 00:00:00 8.04028 C 63.8611 %
144 25-03-2020 00:00:00 7.80833 C 63.4722 %
145 26-03-2020 00:00:00 8.04028 C 64.0208 %
146 27-03-2020 00:00:00 9.19722 C 61.4583 %
147 28-03-2020 00:00:00 10.48264 C 59.6944 %
148 29-03-2020 00:00:00 10.14855 C 60.5362 %
149 30-03-2020 00:00:00 8.62708 C 59.5417 %
150 31-03-2020 00:00:00 8.58472 C 62.8194 %
Sensor: Nr:Datum:Temp:Feuchte:
G-T/H 151 01-04-2020 00:00:00 8.20764 C 62.6181 %
152 02-04-2020 00:00:00 8.18194 C 64.4097 %
153 03-04-2020 00:00:00 9.17708 C 61.3125 %
154 04-04-2020 00:00:00 7.05486 C 55.4306 %
155 05-04-2020 00:00:00 9.21944 C 61.8056 %
156 06-04-2020 00:00:00 10.2125 C 63.7569 %
157 07-04-2020 00:00:00 13.11319 C 59.7083 %
158 08-04-2020 00:00:00 13.17153 C 61.2847 %
159 09-04-2020 00:00:00 13.65556 C 60.0069 %
160 10-04-2020 00:00:00 13.73681 C 60.7847 %
161 11-04-2020 00:00:00 13.3125 C 61.3611 %
162 12-04-2020 00:00:00 13.45 C 63.2500 %
163 13-04-2020 00:00:00 13.15556 C 59.7986 %
164 14-04-2020 00:00:00 11.44375 C 58.7847 %
165 15-04-2020 00:00:00 11.16875 C 56.8333 %
166 16-04-2020 00:00:00 11.42917 C 52.3542 %
167 17-04-2020 00:00:00 14.90625 C 55.3958 %
168 18-04-2020 00:00:00 14.63333 C 62.5347 %
169 19-04-2020 00:00:00 14.45833 C 64.6250 %
170 20-04-2020 00:00:00 13.53681 C 59.6042 %
171 21-04-2020 00:00:00 13.28819 C 58.7986 %
172 22-04-2020 00:00:00 13.43958 C 59.4167 %
173 23-04-2020 00:00:00 13.68125 C 59.6181 %
174 24-04-2020 00:00:00 14.95139 C 52.1875 %
175 25-04-2020 00:00:00 14.65694 C 48.8681 %
Sensor: Nr:Datum:Temp:Feuchte:
G-T/H 176 26-04-2020 00:00:00 11.22569 C 54.7014 %
177 27-04-2020 00:00:00 13.14028 C 57.4375 %
178 28-04-2020 00:00:00 13.66528 C 62.0139 %
179 29-04-2020 00:00:00 13.85625 C 64.5486 %
180 30-04-2020 00:00:00 14.0875 C 65.0556 %
181 01-05-2020 00:00:00 13.42361 C 65.1111 %
182 02-05-2020 00:00:00 12.90972 C 65.8542 %
183 03-05-2020 00:00:00 12.50278 C 65.6389 %
184 04-05-2020 00:00:00 13.3096 C 66.6560 %
185 16-08-2020 00:00:00 28.83774 C 49.1132 %
186 17-08-2020 00:00:00 22.89861 C 61.1597 %
187 18-08-2020 00:00:00 21.78472 C 62.2500 %
188 19-08-2020 00:00:00 20.76042 C 62.8056 %
189 20-08-2020 00:00:00 21.42778 C 64.2153 %
190 21-08-2020 00:00:00 23.78681 C 60.8611 %
191 22-08-2020 00:00:00 23.54028 C 51.5833 %
192 23-08-2020 00:00:00 22.34236 C 54.2083 %
193 24-08-2020 00:00:00 21.13958 C 53.8264 %
194 25-08-2020 00:00:00 20.35139 C 56.7569 %
195 26-08-2020 00:00:00 20.64931 C 57.0625 %
196 27-08-2020 00:00:00 20.16944 C 57.9792 %
197 28-08-2020 00:00:00 19.75903 C 60.7222 %
198 29-08-2020 00:00:00 18.92847 C 61.1806 %
199 30-08-2020 00:00:00 18.35694 C 63.0694 %
200 31-08-2020 00:00:00 18.39792 C 64.6944 %
Sensor: Nr:Datum:Temp:Feuchte:
G-T/H 201 01-09-2020 00:00:00 17.98125 C 66.3125 %
202 02-09-2020 00:00:00 18.01667 C 60.1667 %
203 03-09-2020 00:00:00 17.69861 C 62.8542 %
204 04-09-2020 00:00:00 18.82847 C 66.3056 %
205 05-09-2020 00:00:00 19.28889 C 64.4444 %
206 06-09-2020 00:00:00 18.08056 C 57.0833 %
207 07-09-2020 00:00:00 17.27153 C 55.0972 %
208 08-09-2020 00:00:00 17.67083 C 55.2569 %
209 09-09-2020 00:00:00 18.06458 C 61.2014 %
210 10-09-2020 00:00:00 18.65208 C 58.8194 %
211 11-09-2020 00:00:00 18.21875 C 54.8403 %
212 12-09-2020 00:00:00 17.77361 C 59.5764 %
213 13-09-2020 00:00:00 18.46667 C 59.0000 %
214 14-09-2020 00:00:00 19.90417 C 56.0208 %
215 15-09-2020 00:00:00 19.45278 C 58.5278 %
216 16-09-2020 00:00:00 19.31111 C 61.5972 %
217 17-09-2020 00:00:00 19.19097 C 59.8681 %
218 18-09-2020 00:00:00 17.71667 C 58.8681 %
219 19-09-2020 00:00:00 18.09583 C 51.6806 %
220 20-09-2020 00:00:00 16.47431 C 50.9097 %
221 21-09-2020 00:00:00 16.33125 C 57.3403 %
222 22-09-2020 00:00:00 17.15069 C 57.0000 %
223 23-09-2020 00:00:00 17.37778 C 58.4792 %
224 24-09-2020 00:00:00 17.76528 C 58.3125 %
225 25-09-2020 00:00:00 16.23056 C 57.3264 %
Sensor: Nr:Datum:Temp:Feuchte:
G-T/H 226 26-09-2020 00:00:00 15.11111 C 62.6597 %
227 27-09-2020 00:00:00 14.62083 C 67.2569 %
228 28-09-2020 00:00:00 14.80417 C 68.7500 %
229 29-09-2020 00:00:00 14.98889 C 69.8125 %
230 30-09-2020 00:00:00 15.23333 C 70.9514 %
231 01-10-2020 00:00:00 15.42639 C 70.8750 %
232 02-10-2020 00:00:00 15.06736 C 71.0347 %
233 03-10-2020 00:00:00 15.58819 C 71.4722 %
234 04-10-2020 00:00:00 14.95556 C 71.5764 %
235 05-10-2020 00:00:00 14.51806 C 72.2708 %
236 06-10-2020 00:00:00 14.77986 C 73.0000 %
237 07-10-2020 00:00:00 14.95069 C 72.7708 %
238 08-10-2020 00:00:00 14.87292 C 72.7222 %
239 09-10-2020 00:00:00 15.37153 C 73.7014 %
240 10-10-2020 00:00:00 14.53542 C 71.1528 %
241 11-10-2020 00:00:00 13.96597 C 68.0556 %
242 12-10-2020 00:00:00 13.85208 C 68.7014 %
243 13-10-2020 00:00:00 13.15105 C 67.5524 %
244 14-10-2020 00:00:00 12.48056 C 67.6111 %
245 15-10-2020 00:00:00 12.82361 C 71.0347 %
246 16-10-2020 00:00:00 13.03819 C 71.9583 %
247 17-10-2020 00:00:00 12.16389 C 68.6458 %
248 18-10-2020 00:00:00 12.17778 C 71.2708 %
249 19-10-2020 00:00:00 12.32361 C 70.8056 %
250 20-10-2020 00:00:00 12.04306 C 69.4167 %
Sensor: Nr:Datum:Temp:Feuchte:
G-T/H 251 21-10-2020 00:00:00 13.99722 C 69.8611 %
252 22-10-2020 00:00:00 15.26181 C 70.4306 %
253 23-10-2020 00:00:00 15.6125 C 72.0000 %
254 24-10-2020 00:00:00 15.02639 C 72.2292 %
255 25-10-2020 00:00:00 14.944 C 72.5733 %
256 26-10-2020 00:00:00 14.60984 C 73.0000 %

Maximal/Minimal-Werte vom 03.11.2019 - 26.10.2020

Sensor Min Max Avg
Temp
(Aussen-T/F)
-5 °C
29-12-2019  07:23:17
44.3 °C
08-08-2020  16:51:17
11.85 °C
Feuchte
(Aussen-T/F)
20 %
03-11-2019  11:18:17
50 %
14-03-2020  05:39:18
32.87 %
Temp
(G-T/H)
4.2 °C
04-04-2020  07:31:18
28.9 °C
16-08-2020  15:23:36
12.08 °C
Feuchte
(G-T/H)
34 %
19-09-2020  18:36:17
77 %
17-12-2019  23:12:17
68.08 %

Die Daten stammen von einer Davis Vantage Pro 2 Wetter-Station und werden unter Linux mit der Software wview2wettercgi und aufbereitet. Alle Angaben erfolgen ohne Gewähr für ihre Vollständigkeit oder Richtigkeit.
Kontakt: Rainer Krienke krienke@uni-koblenz.de . Meine Webseiten an der Uni Koblenz oder privat.
Version: $Revision: 0.78 $